»·PEaware :: ASA1893 KLAX-KSFO

ASA1893 :: KLAX-KSFO

FLIGHT INFORMATION

Flight Status: Arrived
Operator:
Alaska Airlines
More flights by this operator :: More flights under this callsign
Pilot: Jac C. (16067)
Aircraft: AIRBUS A320
(A320)
More flights by this aircraft type
Origin: KLAX Los Angeles Intl
United States
Destination: KSFO San Francisco Intl
United States
More flights between these airports :: More routes between these airports
Route: SUMMR1 STOKD SERFR SERFR2
File this flight plan on PilotEdge
Remarks:
Altitude:
(Current/Filed)
34,000ft
Speed:
(Current/Filed)
424kts
Departed: 29-Jan-18 07:26 PM
Arrived: 29-Jan-18 08:21 PM
Distance/Time
Traveled:
293nm/0:55
Distance/Time
To Go:
Arrived

Flight Plot

Page will automatically refresh every two minutes.

Flight plan parsing failed; only flown route is shown


Map Options




Map Legend


Flown Route
Filed Route
Departure Airport
Arrival Airport
Navaid (VOR, NDB)
Fix

Horizontal Profiles

Position Reports

Time Latitude Longitude Heading Altitude Ground
Speed
29-Jan-18 19:02 33.942174 -118.402678 84 121ft 0kts
29-Jan-18 19:03 33.942174 -118.402678 84 121ft 0kts
29-Jan-18 19:04 33.942174 -118.402678 84 121ft 0kts
29-Jan-18 19:05 33.942174 -118.402678 84 121ft 0kts
29-Jan-18 19:06 33.942174 -118.402678 84 121ft 0kts
29-Jan-18 19:07 33.942174 -118.402678 84 121ft 0kts
29-Jan-18 19:08 33.942174 -118.402678 84 121ft 0kts
29-Jan-18 19:09 33.942174 -118.402678 84 121ft 0kts
29-Jan-18 19:10 33.942174 -118.402678 84 121ft 0kts
29-Jan-18 19:11 33.942174 -118.402678 84 121ft 0kts
29-Jan-18 19:12 33.942174 -118.402678 84 121ft 0kts
29-Jan-18 19:13 33.942174 -118.402678 84 121ft 0kts
29-Jan-18 19:14 33.942174 -118.402678 84 121ft 0kts
29-Jan-18 19:15 33.942174 -118.402678 84 121ft 0kts
29-Jan-18 19:16 33.942174 -118.402678 84 121ft 0kts
29-Jan-18 19:17 33.942174 -118.402678 84 121ft 0kts
29-Jan-18 19:18 33.942174 -118.402678 84 121ft 0kts
29-Jan-18 19:19 33.942174 -118.402678 84 121ft 0kts
29-Jan-18 19:20 33.942174 -118.402678 84 121ft 0kts
29-Jan-18 19:21 33.942174 -118.402678 84 121ft 0kts
29-Jan-18 19:22 33.942174 -118.402678 84 121ft 0kts
29-Jan-18 19:23 33.942172 -118.402699 84 121ft 1kts
29-Jan-18 19:24 33.942112 -118.403533 107 121ft 2kts
29-Jan-18 19:25 33.942159 -118.403653 117 121ft 0kts
29-Jan-18 19:26 33.942158 -118.403649 117 121ft 0kts
29-Jan-18 19:27 33.940753 -118.403066 175 121ft 10kts
29-Jan-18 19:28 33.938801 -118.399749 79 117ft 24kts
29-Jan-18 19:29 33.940006 -118.388020 83 104ft 19kts
29-Jan-18 19:30 33.940551 -118.382716 83 101ft 22kts
29-Jan-18 19:31 33.940700 -118.380985 91 101ft 0kts
29-Jan-18 19:32 33.939505 -118.383537 261 102ft 74kts
29-Jan-18 19:33 33.933406 -118.443031 264 2135ft 239kts
29-Jan-18 19:34 33.925877 -118.530733 265 5903ft 279kts
29-Jan-18 19:35 33.918105 -118.626163 267 9731ft 299kts
29-Jan-18 19:36 33.917506 -118.731719 269 12246ft 346kts
29-Jan-18 19:37 33.917454 -118.848674 270 14822ft 358kts
29-Jan-18 19:38 33.921084 -118.970441 270 17724ft 371kts
29-Jan-18 19:39 33.958209 -119.086003 300 20291ft 387kts
29-Jan-18 19:40 34.019320 -119.193821 319 22548ft 401kts
29-Jan-18 19:41 34.110943 -119.273069 323 24627ft 411kts
29-Jan-18 19:42 34.203674 -119.352979 322 26862ft 409kts
29-Jan-18 19:43 34.295580 -119.432405 324 28828ft 408kts
29-Jan-18 19:44 34.388759 -119.513106 326 30233ft 418kts
29-Jan-18 19:45 34.473292 -119.608890 316 31961ft 415kts
29-Jan-18 19:46 34.552094 -119.705985 314 34026ft 398kts
29-Jan-18 19:47 34.629185 -119.801140 314 34194ft 395kts
29-Jan-18 19:48 34.706135 -119.896396 314 34223ft 396kts
29-Jan-18 19:49 34.783027 -119.991873 314 34221ft 396kts
29-Jan-18 19:50 34.859787 -120.087463 314 34190ft 396kts
29-Jan-18 19:51 34.936104 -120.182769 314 34191ft 396kts
29-Jan-18 19:52 35.012823 -120.278850 314 34193ft 396kts
29-Jan-18 19:53 35.089553 -120.374714 315 34193ft 396kts
29-Jan-18 19:54 35.169919 -120.464852 315 34203ft 397kts
29-Jan-18 19:55 35.251278 -120.556187 314 34147ft 402kts
29-Jan-18 19:56 35.333740 -120.648992 313 34200ft 406kts
29-Jan-18 19:57 35.416457 -120.742364 313 34264ft 408kts
29-Jan-18 19:58 35.501480 -120.834929 318 34292ft 411kts
29-Jan-18 19:59 35.592053 -120.918875 318 34259ft 409kts
29-Jan-18 20:00 35.682353 -121.002869 318 34058ft 400kts
29-Jan-18 20:01 35.768769 -121.083516 318 33217ft 387kts
29-Jan-18 20:02 35.853675 -121.162916 318 32366ft 384kts
29-Jan-18 20:03 35.937882 -121.241897 318 31519ft 379kts
29-Jan-18 20:04 36.021013 -121.320079 318 30663ft 374kts
29-Jan-18 20:05 36.104944 -121.393150 323 29789ft 373kts
29-Jan-18 20:06 36.190111 -121.459603 323 28682ft 363kts
29-Jan-18 20:07 36.273527 -121.524868 323 26968ft 349kts
29-Jan-18 20:08 36.353721 -121.587755 323 25290ft 336kts
29-Jan-18 20:09 36.431009 -121.648506 323 23654ft 324kts
29-Jan-18 20:10 36.505576 -121.707256 322 22052ft 315kts
29-Jan-18 20:11 36.578242 -121.764687 322 20485ft 308kts
29-Jan-18 20:12 36.656966 -121.827032 323 19413ft 358kts
29-Jan-18 20:13 36.740784 -121.891982 333 17304ft 357kts
29-Jan-18 20:14 36.836325 -121.920581 343 15370ft 350kts
29-Jan-18 20:15 36.929502 -121.946673 344 13526ft 336kts
29-Jan-18 20:16 37.016851 -121.978419 340 11811ft 322kts
29-Jan-18 20:17 37.100421 -122.011037 340 10172ft 299kts
29-Jan-18 20:18 37.175543 -122.040484 342 8766ft 282kts
29-Jan-18 20:19 37.248894 -122.069238 342 7401ft 275kts
29-Jan-18 20:20 37.320485 -122.097370 342 6266ft 260kts
29-Jan-18 20:21 37.388974 -122.124277 342 5063ft 257kts
29-Jan-18 20:22 37.456004 -122.150986 342 4097ft 246kts
29-Jan-18 20:23 37.519631 -122.176747 342 4016ft 227kts
29-Jan-18 20:24 37.560891 -122.229937 287 2728ft 240kts
29-Jan-18 20:25 37.591126 -122.307942 296 749ft 244kts
29-Jan-18 20:26 37.617016 -122.370864 297 18ft 147kts
29-Jan-18 20:27 37.621546 -122.386289 158 32ft 15kts
29-Jan-18 20:28 37.619057 -122.385968 174 32ft 5kts

Navigation Log

Ident Type
Flight plan parsing failed, navigation log unavailable